createdAt,value
2018-05-23T00:05:28.500Z,25.65
2018-05-23T00:09:22.008Z,29.70
2018-05-23T00:13:15.909Z,25.15
2018-05-23T00:17:09.334Z,25.48
2018-05-23T00:21:02.838Z,29.30
2018-05-23T00:24:56.271Z,28.92
2018-05-23T00:28:49.638Z,29.43
2018-05-23T00:32:42.982Z,30.93
2018-05-23T00:36:36.393Z,28.50
2018-05-23T00:40:29.600Z,27.97
2018-05-23T00:44:22.544Z,32.92
2018-05-23T00:48:15.733Z,35.40
2018-05-23T00:52:08.898Z,34.83
2018-05-23T00:56:02.057Z,31.73
2018-05-23T00:59:56.009Z,28.98
2018-05-23T01:03:49.148Z,25.42
2018-05-23T01:07:42.442Z,29.20
2018-05-23T01:11:35.703Z,35.80
2018-05-23T01:15:28.842Z,32.93
2018-05-23T01:19:22.098Z,36.75
2018-05-23T01:23:15.297Z,34.57
2018-05-23T01:27:08.537Z,31.70
2018-05-23T01:31:01.747Z,35.60
2018-05-23T01:34:54.992Z,35.30
2018-05-23T01:38:47.937Z,36.93
2018-05-23T01:42:41.902Z,36.63
2018-05-23T01:46:35.809Z,35.47
2018-05-23T01:50:29.015Z,37.40
2018-05-23T01:54:22.338Z,36.30
2018-05-23T01:58:15.585Z,33.57
2018-05-23T02:02:09.716Z,32.17
2018-05-23T02:06:03.019Z,30.17
2018-05-23T02:09:57.001Z,29.27
2018-05-23T02:13:50.308Z,31.05
2018-05-23T02:17:44.999Z,22.70
2018-05-23T02:21:38.638Z,24.23
2018-05-23T02:25:31.906Z,26.67
2018-05-23T02:29:25.138Z,22.90
2018-05-23T02:33:19.469Z,24.00
2018-05-23T02:37:12.681Z,22.23
2018-05-23T02:41:05.937Z,24.40
2018-05-23T02:45:01.877Z,23.20
2018-05-23T02:48:56.540Z,18.27
2018-05-23T02:52:49.812Z,15.27
2018-05-23T02:56:43.060Z,16.40
2018-05-23T03:00:36.039Z,14.10
2018-05-23T03:04:30.022Z,12.88
2018-05-23T03:08:23.237Z,13.23
2018-05-23T03:12:16.419Z,14.70
2018-05-23T03:16:09.617Z,14.25
2018-05-23T03:20:03.059Z,14.52
2018-05-23T03:23:57.019Z,14.70
2018-05-23T03:27:50.757Z,15.60
2018-05-23T03:31:45.513Z,13.63
2018-05-23T03:35:38.551Z,14.65
2018-05-23T03:39:31.917Z,14.33
2018-05-23T03:43:25.211Z,14.57
2018-05-23T03:47:18.701Z,14.65
2018-05-23T03:51:11.928Z,14.35
2018-05-23T04:04:11.412Z,14.73
2018-05-23T04:08:05.378Z,16.00
2018-05-23T04:11:59.331Z,15.43
2018-05-23T04:15:52.459Z,15.67
2018-05-23T04:19:46.865Z,15.93
2018-05-23T04:23:40.062Z,16.07
2018-05-23T04:27:37.688Z,15.02
2018-05-23T04:31:31.720Z,14.93
2018-05-23T04:35:25.081Z,15.63
2018-05-23T04:39:18.216Z,15.88
2018-05-23T04:43:11.350Z,14.57
2018-05-23T04:47:06.476Z,16.27
2018-05-23T04:51:01.178Z,15.02
2018-05-23T04:54:54.392Z,14.53
2018-05-23T04:58:47.543Z,15.95
2018-05-23T05:02:40.735Z,13.07
2018-05-23T05:06:34.755Z,14.50
2018-05-23T05:14:39.587Z,14.48
2018-05-23T05:18:33.852Z,14.30
2018-05-23T05:22:27.384Z,14.13
2018-05-23T05:26:21.472Z,12.27
2018-05-23T05:30:15.460Z,14.75
2018-05-23T05:34:10.155Z,14.93
2018-05-23T05:38:04.930Z,15.67
2018-05-23T05:41:58.821Z,12.87
2018-05-23T05:45:53.533Z,14.20
2018-05-23T05:49:48.024Z,14.85
2018-05-23T05:53:43.272Z,15.50
2018-05-23T05:57:36.829Z,14.70
2018-05-23T06:01:30.335Z,15.53
2018-05-23T06:05:26.829Z,15.27
2018-05-23T06:13:33.944Z,18.02
2018-05-23T06:17:28.002Z,14.53
2018-05-23T06:21:22.533Z,15.07
2018-05-23T06:25:19.186Z,15.80
2018-05-23T06:33:38.369Z,15.55
2018-05-23T06:37:32.008Z,13.68
2018-05-23T06:41:29.058Z,14.97
2018-05-23T06:45:23.767Z,15.10
2018-05-23T06:57:54.107Z,13.87
2018-05-23T07:02:07.569Z,14.35
2018-05-23T07:06:10.318Z,14.15
2018-05-23T07:10:13.734Z,15.53
2018-05-23T07:14:07.020Z,14.55
2018-05-23T07:18:01.538Z,15.13
2018-05-23T07:21:54.652Z,15.95
2018-05-23T07:25:50.390Z,17.00
2018-05-23T07:29:43.525Z,16.33
2018-05-23T07:33:36.937Z,17.33
2018-05-23T07:37:37.409Z,16.90
2018-05-23T07:41:30.938Z,15.73
2018-05-23T07:45:24.480Z,16.57
2018-05-23T07:49:45.556Z,16.73
2018-05-23T07:53:45.582Z,16.40
2018-05-23T07:57:40.198Z,15.90
2018-05-23T08:01:33.569Z,15.68
2018-05-23T08:05:27.325Z,17.23
2018-05-23T08:09:22.458Z,16.70
2018-05-23T08:13:18.985Z,17.07
2018-05-23T08:17:12.457Z,18.12
2018-05-23T08:21:06.527Z,18.10
2018-05-23T08:24:59.737Z,18.42
2018-05-23T08:28:55.331Z,17.58
2018-05-23T08:32:55.857Z,17.97
2018-05-23T08:36:49.077Z,17.10
2018-05-23T08:40:42.998Z,18.15
2018-05-23T08:44:36.808Z,16.60
2018-05-23T08:52:45.453Z,14.80
2018-05-23T08:56:39.523Z,15.75
2018-05-23T09:22:27.546Z,11.67
2018-05-23T09:26:21.580Z,11.50
2018-05-23T09:30:15.330Z,11.60
2018-05-23T09:34:09.102Z,10.83
2018-05-23T09:38:21.910Z,10.82
2018-05-23T09:46:39.896Z,11.23
2018-05-23T09:50:34.577Z,12.00
2018-05-23T09:54:29.417Z,11.07
2018-05-23T09:58:24.804Z,12.60
2018-05-23T10:10:22.516Z,10.10
2018-05-23T10:14:15.895Z,9.43
2018-05-23T10:18:23.953Z,8.17
2018-05-23T10:41:31.509Z,4.90
2018-05-23T10:45:27.697Z,5.20
2018-05-23T10:49:21.687Z,4.78
2018-05-23T10:53:20.067Z,4.85
2018-05-23T10:57:14.391Z,4.32
2018-05-23T11:01:09.512Z,4.22
2018-05-23T11:05:03.788Z,3.85
2018-05-23T11:08:57.496Z,3.70
2018-05-23T11:12:50.782Z,5.00
2018-05-23T11:16:52.238Z,3.60
2018-05-23T11:55:41.181Z,3.80
2018-05-23T12:03:54.193Z,4.35
2018-05-23T12:12:14.951Z,3.60
2018-05-23T12:20:19.909Z,4.30
2018-05-23T12:24:13.334Z,4.57
2018-05-23T12:28:07.631Z,4.43
2018-05-23T12:32:02.285Z,4.57
2018-05-23T12:35:56.089Z,4.60
2018-05-23T12:39:50.202Z,4.72
2018-05-23T12:43:43.873Z,4.75
2018-05-23T12:47:37.197Z,3.78
2018-05-23T12:51:31.503Z,3.87
2018-05-23T12:55:24.715Z,5.22
2018-05-23T12:59:18.405Z,4.18
2018-05-23T13:03:11.741Z,4.50
2018-05-23T13:07:05.099Z,4.50
2018-05-23T13:10:59.046Z,3.40
2018-05-23T13:14:52.435Z,3.92
2018-05-23T13:18:49.193Z,4.20
2018-05-23T13:22:42.407Z,4.30
2018-05-23T13:26:35.643Z,4.00
2018-05-23T13:30:28.788Z,4.17
2018-05-23T13:34:21.973Z,4.57
2018-05-23T13:38:15.514Z,4.65
2018-05-23T13:42:08.692Z,4.60
2018-05-23T13:50:22.268Z,4.68
2018-05-23T13:54:19.120Z,4.87
2018-05-23T13:58:13.064Z,5.73
2018-05-23T14:02:06.515Z,5.93
2018-05-23T14:05:59.926Z,6.60
2018-05-23T14:09:53.164Z,6.45
2018-05-23T14:13:46.341Z,6.75
2018-05-23T14:17:43.213Z,7.20
2018-05-23T14:21:39.272Z,6.53
2018-05-23T14:25:33.411Z,6.33
2018-05-23T14:29:27.461Z,6.43
2018-05-23T14:33:21.838Z,6.75
2018-05-23T14:37:15.042Z,6.65
2018-05-23T14:41:09.176Z,6.40
2018-05-23T14:45:02.518Z,6.15
2018-05-23T14:48:55.853Z,6.80
2018-05-23T14:52:48.827Z,5.67
2018-05-23T14:56:42.184Z,7.45
2018-05-23T15:00:35.590Z,6.87
2018-05-23T15:04:30.801Z,7.30
2018-05-23T15:08:24.550Z,7.67
2018-05-23T15:12:18.731Z,7.30
2018-05-23T15:16:12.351Z,7.15
2018-05-23T15:20:05.974Z,8.32
2018-05-23T15:24:01.000Z,7.53
2018-05-23T15:27:55.238Z,7.70
2018-05-23T15:36:19.379Z,7.10
2018-05-23T15:40:14.822Z,6.37
2018-05-23T15:44:24.884Z,6.03
2018-05-23T15:48:18.676Z,5.70
2018-05-23T16:35:32.811Z,4.10
2018-05-23T16:39:26.137Z,3.50
2018-05-23T16:47:58.593Z,4.17
2018-05-23T17:08:50.128Z,3.65
2018-05-23T17:12:44.232Z,3.12
2018-05-23T17:16:39.340Z,3.80
2018-05-23T17:20:35.550Z,3.70
2018-05-23T17:24:31.836Z,3.50
2018-05-23T17:28:39.704Z,2.97
2018-05-23T17:32:34.235Z,3.40
2018-05-23T17:36:27.806Z,3.20
2018-05-23T17:40:41.721Z,3.45
2018-05-23T17:44:36.077Z,3.25
2018-05-23T17:48:29.629Z,3.42
2018-05-23T17:52:24.160Z,3.35
2018-05-23T17:56:17.680Z,3.00
2018-05-23T18:00:11.438Z,3.10
2018-05-23T18:04:05.624Z,3.20
2018-05-23T18:08:01.522Z,3.25
2018-05-23T18:11:54.649Z,3.37
2018-05-23T18:15:48.492Z,2.87
2018-05-23T18:19:45.159Z,3.53
2018-05-23T18:23:42.331Z,3.10
2018-05-23T18:27:37.831Z,3.07
2018-05-23T18:31:31.903Z,3.00
2018-05-23T18:35:25.111Z,3.30
2018-05-23T18:39:18.101Z,3.30
2018-05-23T18:43:11.249Z,2.90
2018-05-23T18:47:04.485Z,3.57
2018-05-23T18:50:58.469Z,2.87
2018-05-23T18:54:52.394Z,3.00
2018-05-23T18:58:45.587Z,3.00
2018-05-23T19:02:39.528Z,2.90
2018-05-23T19:06:32.860Z,3.40
2018-05-23T19:10:28.198Z,3.03
2018-05-23T19:14:23.449Z,3.25
2018-05-23T19:18:18.285Z,2.93
2018-05-23T19:22:11.509Z,3.20
2018-05-23T19:26:04.694Z,3.10
2018-05-23T19:29:57.825Z,3.15
2018-05-23T19:33:50.926Z,2.90
2018-05-23T19:37:44.088Z,2.90
2018-05-23T19:41:37.842Z,3.08
2018-05-23T19:45:31.169Z,3.37
2018-05-23T19:49:24.949Z,3.22
2018-05-23T19:53:19.064Z,3.90
2018-05-23T19:57:12.422Z,3.90
2018-05-23T20:01:05.673Z,3.42
2018-05-23T20:04:58.996Z,3.60
2018-05-23T20:08:52.203Z,3.53
2018-05-23T20:12:45.423Z,3.28
2018-05-23T20:16:38.916Z,3.55
2018-05-23T20:20:32.288Z,3.50
2018-05-23T20:24:25.546Z,3.80
2018-05-23T20:28:20.494Z,3.40
2018-05-23T20:32:15.090Z,4.20
2018-05-23T20:36:09.059Z,3.60
2018-05-23T20:40:02.060Z,3.60
2018-05-23T20:44:00.353Z,2.90
2018-05-23T20:52:17.703Z,3.42
2018-05-23T21:00:37.090Z,3.45
2018-05-23T21:04:30.381Z,3.50
2018-05-23T21:08:23.569Z,3.25
2018-05-23T21:12:17.674Z,3.53
2018-05-23T21:16:11.252Z,3.67
2018-05-23T21:20:05.212Z,3.10
2018-05-23T21:23:58.447Z,3.23
2018-05-23T21:27:51.821Z,3.53
2018-05-23T21:31:44.946Z,3.65
2018-05-23T21:35:38.936Z,3.55
2018-05-23T21:39:32.769Z,3.35
2018-05-23T21:43:26.048Z,3.80
2018-05-23T21:47:19.292Z,3.37
2018-05-23T21:51:12.515Z,3.70
2018-05-23T21:55:05.854Z,3.33
2018-05-23T21:59:00.251Z,3.30
2018-05-23T22:02:53.372Z,3.17
2018-05-23T22:06:46.494Z,3.60
2018-05-23T22:10:39.652Z,3.25
2018-05-23T22:14:32.828Z,4.50
2018-05-23T22:18:26.007Z,5.25
2018-05-23T22:22:19.421Z,4.80
2018-05-23T22:26:11.912Z,4.30
2018-05-23T22:30:05.799Z,3.55
2018-05-23T22:33:59.328Z,3.62
2018-05-23T22:37:52.505Z,3.75
2018-05-23T22:41:47.536Z,4.78
2018-05-23T22:45:40.574Z,5.87
2018-05-23T22:49:33.774Z,5.12
2018-05-23T22:53:26.895Z,5.90
2018-05-23T22:57:20.298Z,4.95
2018-05-23T23:01:16.721Z,4.10
2018-05-23T23:05:09.853Z,3.60
2018-05-23T23:09:02.987Z,3.65
2018-05-23T23:12:56.251Z,3.42
2018-05-23T23:16:49.740Z,3.80
2018-05-23T23:20:43.766Z,6.20
2018-05-23T23:24:36.981Z,5.40
2018-05-23T23:28:30.322Z,5.05
2018-05-23T23:32:24.281Z,4.17
2018-05-23T23:36:17.447Z,3.87
2018-05-23T23:40:11.524Z,3.83
2018-05-23T23:44:04.779Z,3.60
2018-05-23T23:47:58.716Z,3.40
2018-05-23T23:51:51.835Z,3.55
2018-05-23T23:55:45.043Z,3.42
2018-05-23T23:59:38.225Z,3.60
